createdAt,value
2023-03-20T00:00:02.261Z,0.00
2023-03-20T00:01:02.833Z,0.00
2023-03-20T00:02:03.411Z,0.00
2023-03-20T00:03:02.784Z,0.00
2023-03-20T00:04:03.379Z,0.00
2023-03-20T00:05:02.985Z,0.00
2023-03-20T00:06:02.875Z,0.00
2023-03-20T00:07:02.505Z,0.00
2023-03-20T00:08:03.092Z,0.00
2023-03-20T00:09:07.182Z,0.00
2023-03-20T00:10:02.504Z,0.00
2023-03-20T00:11:02.963Z,0.00
2023-03-20T00:12:03.073Z,0.00
2023-03-20T00:13:03.144Z,0.00
2023-03-20T00:14:03.181Z,0.00
2023-03-20T00:15:03.121Z,0.00
2023-03-20T00:16:03.253Z,0.00
2023-03-20T00:17:03.353Z,0.00
2023-03-20T00:18:03.105Z,0.00
2023-03-20T00:19:03.293Z,0.00
2023-03-20T00:20:03.134Z,0.00
2023-03-20T00:21:02.736Z,0.00
2023-03-20T00:22:02.354Z,0.00
2023-03-20T00:23:02.388Z,0.00
2023-03-20T00:24:02.769Z,0.00
2023-03-20T00:25:02.576Z,0.00
2023-03-20T00:26:02.393Z,0.00
2023-03-20T00:27:02.902Z,0.00
2023-03-20T00:28:03.137Z,0.00
2023-03-20T00:29:02.929Z,0.00
2023-03-20T00:30:03.178Z,0.00
2023-03-20T00:31:03.246Z,0.00
2023-03-20T00:32:02.238Z,0.00
2023-03-20T00:33:02.480Z,0.00
2023-03-20T00:34:02.515Z,0.00
2023-03-20T00:35:02.465Z,0.00
2023-03-20T00:36:02.392Z,0.00
2023-03-20T00:37:02.362Z,0.00
2023-03-20T00:38:02.763Z,0.00
2023-03-20T00:39:02.480Z,0.00
2023-03-20T00:40:02.499Z,0.00
2023-03-20T00:41:02.352Z,0.00
2023-03-20T00:42:03.290Z,0.00
2023-03-20T00:43:03.060Z,0.00
2023-03-20T00:44:03.246Z,0.00
2023-03-20T00:45:03.289Z,0.00
2023-03-20T00:46:02.835Z,0.00
2023-03-20T00:47:02.547Z,0.00
2023-03-20T00:48:02.943Z,0.00
2023-03-20T00:49:02.367Z,0.00
2023-03-20T00:50:02.562Z,0.00
2023-03-20T00:51:02.574Z,0.00
2023-03-20T00:52:03.349Z,0.00
2023-03-20T00:53:03.283Z,0.00
2023-03-20T00:54:03.415Z,0.00
2023-03-20T00:55:02.844Z,0.00
2023-03-20T00:56:03.047Z,0.00
2023-03-20T00:57:02.973Z,0.00
2023-03-20T00:58:02.890Z,0.00
2023-03-20T00:59:02.645Z,0.00
2023-03-20T01:00:02.770Z,0.00
2023-03-20T01:01:02.762Z,0.00
2023-03-20T01:02:02.683Z,0.00
2023-03-20T01:03:02.194Z,0.00
2023-03-20T01:04:02.021Z,0.00
2023-03-20T01:05:02.752Z,0.00
2023-03-20T01:06:02.277Z,0.00
2023-03-20T01:07:02.173Z,0.00
2023-03-20T01:08:01.792Z,0.00
2023-03-20T01:09:02.139Z,0.00
2023-03-20T01:10:02.167Z,0.00
2023-03-20T01:11:01.615Z,0.00
2023-03-20T01:12:01.788Z,0.00
2023-03-20T01:13:02.055Z,0.00
2023-03-20T01:14:02.248Z,0.00
2023-03-20T01:15:01.852Z,0.00
2023-03-20T01:16:01.885Z,0.00
2023-03-20T01:17:02.481Z,0.00
2023-03-20T01:18:02.334Z,0.00
2023-03-20T01:19:02.293Z,0.00
2023-03-20T01:20:02.668Z,0.00
2023-03-20T01:21:02.547Z,0.00
2023-03-20T01:22:01.953Z,0.00
2023-03-20T01:23:01.797Z,0.00
2023-03-20T01:24:02.183Z,0.00
2023-03-20T01:25:02.095Z,0.00
2023-03-20T01:26:01.720Z,0.00
2023-03-20T01:27:02.174Z,0.00
2023-03-20T01:28:01.991Z,0.00
2023-03-20T01:29:02.217Z,0.00
2023-03-20T01:30:02.111Z,0.00
2023-03-20T01:31:01.882Z,0.00
2023-03-20T01:32:02.861Z,0.00
2023-03-20T01:33:02.604Z,0.00
2023-03-20T01:34:02.431Z,0.00
2023-03-20T01:35:02.438Z,0.00
2023-03-20T01:36:02.461Z,0.00
2023-03-20T01:37:02.438Z,0.00
2023-03-20T01:38:02.691Z,0.00
2023-03-20T01:39:02.873Z,0.00
2023-03-20T01:40:02.504Z,0.00
2023-03-20T01:41:02.815Z,0.00
2023-03-20T01:42:02.414Z,0.00
2023-03-20T01:43:02.397Z,0.00
2023-03-20T01:44:02.011Z,0.00
2023-03-20T01:45:01.956Z,0.00
2023-03-20T01:46:02.451Z,0.00
2023-03-20T01:47:02.761Z,0.00
2023-03-20T01:48:02.822Z,0.00
2023-03-20T01:49:02.453Z,0.00
2023-03-20T01:50:03.041Z,0.00
2023-03-20T01:51:02.576Z,0.00
2023-03-20T01:52:02.124Z,0.00
2023-03-20T01:53:01.982Z,0.00
2023-03-20T01:54:02.592Z,0.00
2023-03-20T01:55:01.953Z,0.00
2023-03-20T01:56:02.498Z,0.00
2023-03-20T01:57:03.035Z,0.00
2023-03-20T01:58:04.862Z,0.00
2023-03-20T01:59:02.820Z,0.00
2023-03-20T02:00:02.507Z,0.00
2023-03-20T02:01:02.989Z,0.00
2023-03-20T02:02:03.378Z,0.00
2023-03-20T02:03:03.111Z,0.00
2023-03-20T02:04:03.312Z,0.00
2023-03-20T02:05:03.464Z,0.00
2023-03-20T02:06:02.763Z,0.00
2023-03-20T02:07:02.892Z,0.00
2023-03-20T02:08:02.403Z,0.00
2023-03-20T02:09:02.424Z,0.00
2023-03-20T02:10:02.359Z,0.00
2023-03-20T02:11:02.803Z,0.00
2023-03-20T02:12:02.707Z,0.00
2023-03-20T02:13:03.154Z,0.00
2023-03-20T02:14:03.097Z,0.00
2023-03-20T02:15:03.379Z,0.00
2023-03-20T02:16:02.984Z,0.00
2023-03-20T02:17:03.302Z,0.00
2023-03-20T02:18:03.290Z,0.00
2023-03-20T02:19:03.202Z,0.00
2023-03-20T02:20:02.957Z,0.00
2023-03-20T02:21:03.492Z,0.00
2023-03-20T02:22:03.727Z,0.00
2023-03-20T02:23:03.234Z,0.00
2023-03-20T02:24:03.323Z,0.00
2023-03-20T02:25:03.482Z,0.00
2023-03-20T02:26:03.518Z,0.00
2023-03-20T02:27:02.958Z,0.00
2023-03-20T02:28:02.434Z,0.00
2023-03-20T02:29:02.972Z,0.00
2023-03-20T02:30:02.602Z,0.00
2023-03-20T02:31:02.462Z,0.00
2023-03-20T02:32:03.030Z,0.00
2023-03-20T02:33:03.425Z,0.00
2023-03-20T02:34:03.300Z,0.00
2023-03-20T02:35:03.253Z,0.00
2023-03-20T02:36:03.232Z,0.00
2023-03-20T02:37:02.717Z,0.00
2023-03-20T02:38:02.893Z,0.00
2023-03-20T02:39:03.089Z,0.00
2023-03-20T02:40:02.736Z,0.00
2023-03-20T02:41:03.147Z,0.00
2023-03-20T02:42:03.419Z,0.00
2023-03-20T02:43:02.697Z,0.00
2023-03-20T02:44:03.244Z,0.00
2023-03-20T02:45:02.748Z,0.00
2023-03-20T02:46:02.856Z,0.00
2023-03-20T02:47:03.693Z,0.00
2023-03-20T02:48:03.360Z,0.00
2023-03-20T02:49:03.541Z,0.00
2023-03-20T02:50:03.370Z,0.00
2023-03-20T02:51:03.356Z,0.00
2023-03-20T02:52:02.818Z,0.00
2023-03-20T02:53:02.727Z,0.00
2023-03-20T02:54:02.700Z,0.00
2023-03-20T02:55:02.865Z,0.00
2023-03-20T02:56:02.864Z,0.00
2023-03-20T02:57:03.185Z,0.00
2023-03-20T02:58:02.967Z,0.00
2023-03-20T02:59:03.201Z,0.00
2023-03-20T03:00:03.264Z,0.00
2023-03-20T03:01:03.388Z,0.00
2023-03-20T03:02:02.348Z,0.00
2023-03-20T03:03:02.170Z,0.00
2023-03-20T03:04:02.347Z,0.00
2023-03-20T03:05:02.437Z,0.00
2023-03-20T03:06:02.333Z,0.00
2023-03-20T03:07:02.871Z,0.00
2023-03-20T03:08:03.126Z,0.00
2023-03-20T03:09:02.843Z,0.00
2023-03-20T03:10:02.769Z,0.00
2023-03-20T03:11:02.548Z,0.00
2023-03-20T03:12:03.042Z,0.00
2023-03-20T03:13:02.932Z,0.00
2023-03-20T03:14:03.116Z,0.00
2023-03-20T03:15:03.039Z,0.00
2023-03-20T03:16:03.583Z,0.00
2023-03-20T03:17:02.323Z,0.00
2023-03-20T03:18:02.589Z,0.00
2023-03-20T03:19:02.771Z,0.00
2023-03-20T03:20:02.463Z,0.00
2023-03-20T03:21:02.790Z,0.00
2023-03-20T03:22:02.936Z,0.00
2023-03-20T03:23:02.432Z,0.00
2023-03-20T03:24:02.759Z,0.00
2023-03-20T03:25:02.609Z,0.00
2023-03-20T03:26:02.420Z,0.00
2023-03-20T03:27:03.130Z,0.00
2023-03-20T03:28:03.006Z,0.00
2023-03-20T03:29:03.512Z,0.00
2023-03-20T03:30:03.346Z,0.00
2023-03-20T03:31:03.373Z,0.00
2023-03-20T03:32:02.594Z,0.00
2023-03-20T03:33:02.333Z,0.00
2023-03-20T03:34:02.239Z,0.00
2023-03-20T03:35:02.093Z,0.00
2023-03-20T03:36:02.076Z,0.00
2023-03-20T03:37:02.411Z,0.00
2023-03-20T03:38:02.526Z,0.00
2023-03-20T03:39:02.548Z,0.00
2023-03-20T03:40:02.421Z,0.00
2023-03-20T03:41:02.609Z,0.00
2023-03-20T03:42:03.230Z,0.00
2023-03-20T03:43:03.146Z,0.00
2023-03-20T03:44:03.469Z,0.00
2023-03-20T03:45:03.429Z,0.00
2023-03-20T03:46:03.571Z,0.00
2023-03-20T03:47:03.080Z,0.00
2023-03-20T03:48:02.959Z,0.00
2023-03-20T03:49:02.888Z,0.00
2023-03-20T03:50:02.942Z,0.00
2023-03-20T03:51:03.165Z,0.00
2023-03-20T03:52:02.193Z,0.00
2023-03-20T03:53:02.528Z,0.00
2023-03-20T03:54:02.254Z,0.00
2023-03-20T03:55:02.094Z,0.00
2023-03-20T03:56:02.829Z,0.00
2023-03-20T03:57:02.939Z,0.00
2023-03-20T03:58:02.745Z,0.00
2023-03-20T03:59:02.799Z,0.00
2023-03-20T04:00:02.573Z,0.00
2023-03-20T04:01:02.698Z,0.00
2023-03-20T04:02:03.245Z,0.00
2023-03-20T04:03:03.096Z,0.00
2023-03-20T04:04:04.910Z,0.00
2023-03-20T04:05:03.086Z,0.00
2023-03-20T04:06:03.068Z,0.00
2023-03-20T04:07:02.918Z,0.00
2023-03-20T04:08:03.294Z,0.00
2023-03-20T04:09:03.049Z,0.00
2023-03-20T04:10:03.326Z,0.00
2023-03-20T04:11:02.879Z,0.00
2023-03-20T04:12:03.034Z,0.00
2023-03-20T04:13:03.101Z,0.00
2023-03-20T04:14:03.619Z,0.00
2023-03-20T04:15:03.593Z,0.00
2023-03-20T04:16:03.553Z,0.00
2023-03-20T04:17:02.670Z,0.00
2023-03-20T04:18:03.214Z,0.00
2023-03-20T04:19:02.933Z,0.00
2023-03-20T04:20:02.733Z,0.00
2023-03-20T04:21:03.188Z,0.00
2023-03-20T04:22:02.897Z,0.00
2023-03-20T04:23:02.775Z,0.00
2023-03-20T04:24:02.935Z,0.00
2023-03-20T04:25:03.140Z,0.00
2023-03-20T04:26:03.031Z,0.00
2023-03-20T04:27:03.526Z,0.00
2023-03-20T04:28:03.382Z,0.00
2023-03-20T04:29:03.742Z,0.00
2023-03-20T04:30:03.353Z,0.00
2023-03-20T04:31:03.270Z,0.00
2023-03-20T04:32:02.879Z,0.00
2023-03-20T04:33:02.900Z,0.00
2023-03-20T04:34:02.812Z,0.00
2023-03-20T04:35:02.712Z,0.00
2023-03-20T04:36:02.880Z,0.00
2023-03-20T04:37:03.132Z,0.00
2023-03-20T04:38:03.046Z,0.00
2023-03-20T04:39:03.485Z,0.00
2023-03-20T04:40:03.321Z,0.00
2023-03-20T04:41:03.229Z,0.00
2023-03-20T04:42:03.202Z,0.00
2023-03-20T04:43:03.326Z,0.00
2023-03-20T04:44:02.936Z,0.00
2023-03-20T04:45:03.324Z,0.00
2023-03-20T04:46:03.009Z,0.00
2023-03-20T04:47:03.569Z,0.00
2023-03-20T04:48:03.610Z,0.00
2023-03-20T04:49:03.423Z,0.00
2023-03-20T04:50:03.311Z,0.00
2023-03-20T04:51:03.113Z,0.00
2023-03-20T04:52:03.621Z,0.00
2023-03-20T04:53:03.205Z,0.00
2023-03-20T04:54:03.689Z,0.00
2023-03-20T04:55:03.116Z,0.00
2023-03-20T04:56:03.511Z,0.00
2023-03-20T04:57:03.103Z,0.00
2023-03-20T04:58:02.570Z,0.00
2023-03-20T04:59:02.467Z,0.00
2023-03-20T05:00:02.558Z,0.00
2023-03-20T05:01:02.825Z,0.00
2023-03-20T05:02:02.861Z,0.00
2023-03-20T05:03:03.439Z,0.00
2023-03-20T05:04:02.908Z,0.00
2023-03-20T05:05:02.892Z,0.00
2023-03-20T05:06:03.211Z,0.00
2023-03-20T05:07:03.738Z,0.00
2023-03-20T05:08:03.792Z,4.00
2023-03-20T05:09:03.166Z,0.00
2023-03-20T05:10:03.395Z,4.00
2023-03-20T05:11:03.765Z,0.00
2023-03-20T05:12:02.318Z,4.00
2023-03-20T05:13:02.621Z,4.00
2023-03-20T05:14:02.621Z,4.00
2023-03-20T05:15:02.903Z,8.00
2023-03-20T05:16:02.632Z,8.00
2023-03-20T05:17:02.905Z,8.00
2023-03-20T05:18:03.279Z,12.00
2023-03-20T05:19:03.230Z,12.00
2023-03-20T05:20:03.090Z,16.00
2023-03-20T05:21:03.230Z,20.00
2023-03-20T05:22:02.504Z,24.00
2023-03-20T05:23:05.229Z,32.00
2023-03-20T05:24:03.008Z,40.00
2023-03-20T05:25:03.032Z,44.00
2023-03-20T05:26:02.669Z,52.00
2023-03-20T05:27:02.998Z,64.00
2023-03-20T05:28:02.930Z,72.00
2023-03-20T05:29:03.087Z,84.00
2023-03-20T05:30:02.930Z,100.00
2023-03-20T05:31:02.696Z,116.00
2023-03-20T05:32:03.198Z,132.00
2023-03-20T05:33:03.376Z,148.00
2023-03-20T05:34:03.740Z,164.00
2023-03-20T05:35:03.428Z,184.00
2023-03-20T05:36:03.663Z,204.00
2023-03-20T05:37:03.678Z,224.00
2023-03-20T05:38:03.656Z,252.00
2023-03-20T05:39:03.186Z,272.00
2023-03-20T05:40:03.596Z,304.00
2023-03-20T05:41:03.490Z,340.00
2023-03-20T05:42:02.950Z,364.00
2023-03-20T05:43:02.451Z,400.00
2023-03-20T05:44:03.049Z,432.00
2023-03-20T05:45:02.487Z,468.00
2023-03-20T05:46:02.465Z,504.00
2023-03-20T05:47:02.918Z,552.00
2023-03-20T05:48:02.821Z,596.00
2023-03-20T05:49:03.103Z,648.00
2023-03-20T05:50:02.886Z,700.00
2023-03-20T05:51:02.935Z,756.00
2023-03-20T05:52:03.068Z,816.00
2023-03-20T05:53:03.548Z,872.00
2023-03-20T05:54:03.409Z,932.00
2023-03-20T05:55:03.418Z,992.00
2023-03-20T05:56:02.902Z,1036.00
2023-03-20T05:57:03.806Z,1088.00
2023-03-20T05:58:03.542Z,1132.00
2023-03-20T05:59:03.428Z,1180.00
2023-03-20T06:00:03.327Z,1228.00
2023-03-20T06:01:03.546Z,1272.00
2023-03-20T06:02:02.508Z,1312.00
2023-03-20T06:03:02.458Z,1356.00
2023-03-20T06:04:02.886Z,1404.00
2023-03-20T06:05:02.365Z,1448.00
2023-03-20T06:06:02.640Z,1500.00
2023-03-20T06:07:02.578Z,1568.00
2023-03-20T06:08:02.834Z,1632.00
2023-03-20T06:09:02.622Z,1712.00
2023-03-20T06:10:02.906Z,1796.00
2023-03-20T06:11:02.972Z,1880.00
2023-03-20T06:12:02.754Z,1976.00
2023-03-20T06:13:02.959Z,2072.00
2023-03-20T06:14:02.840Z,2160.00
2023-03-20T06:15:02.782Z,2248.00
2023-03-20T06:16:02.694Z,2312.00
2023-03-20T06:17:02.177Z,2376.00
2023-03-20T06:18:01.972Z,2436.00
2023-03-20T06:19:01.922Z,2488.00
2023-03-20T06:20:02.168Z,2532.00
2023-03-20T06:21:01.826Z,2556.00
2023-03-20T06:22:02.183Z,2580.00
2023-03-20T06:23:02.140Z,2588.00
2023-03-20T06:24:02.195Z,2576.00
2023-03-20T06:25:02.489Z,2528.00
2023-03-20T06:26:02.403Z,2436.00
2023-03-20T06:27:02.089Z,2344.00
2023-03-20T06:28:02.736Z,2236.00
2023-03-20T06:29:02.341Z,2148.00
2023-03-20T06:30:02.256Z,2084.00
2023-03-20T06:31:02.239Z,2024.00
2023-03-20T06:32:01.935Z,1984.00
2023-03-20T06:33:01.764Z,1976.00
2023-03-20T06:34:02.277Z,1980.00
2023-03-20T06:35:01.942Z,2040.00
2023-03-20T06:36:02.179Z,2160.00
2023-03-20T06:37:02.392Z,2304.00
2023-03-20T06:38:02.723Z,2452.00
2023-03-20T06:39:02.117Z,2624.00
2023-03-20T06:40:02.280Z,2796.00
2023-03-20T06:41:02.209Z,2976.00
2023-03-20T06:42:02.614Z,3152.00
2023-03-20T06:43:02.660Z,3332.00
2023-03-20T06:44:02.615Z,3484.00
2023-03-20T06:45:02.508Z,3596.00
2023-03-20T06:46:02.651Z,3732.00
2023-03-20T06:47:01.999Z,3908.00
2023-03-20T06:48:01.793Z,4096.00
2023-03-20T06:49:01.770Z,4272.00
2023-03-20T06:50:01.833Z,4476.00
2023-03-20T06:51:01.764Z,4596.00
2023-03-20T06:52:02.554Z,4616.00
2023-03-20T06:53:02.458Z,4536.00
2023-03-20T06:54:02.375Z,4568.00
2023-03-20T06:55:02.644Z,4772.00
2023-03-20T06:56:02.576Z,4992.00
2023-03-20T06:57:01.854Z,5104.00
2023-03-20T06:58:01.821Z,5064.00
2023-03-20T06:59:01.734Z,5036.00
2023-03-20T07:00:02.212Z,4904.00
2023-03-20T07:01:02.314Z,4960.00
2023-03-20T07:02:03.076Z,5188.00
2023-03-20T07:03:03.520Z,5396.00
2023-03-20T07:04:03.126Z,5436.00
2023-03-20T07:05:03.555Z,5336.00
2023-03-20T07:06:03.394Z,5344.00
2023-03-20T07:07:02.619Z,5408.00
2023-03-20T07:08:02.455Z,5376.00
2023-03-20T07:09:02.673Z,5036.00
2023-03-20T07:10:02.324Z,4796.00
2023-03-20T07:11:02.391Z,4452.00
2023-03-20T07:12:03.044Z,4032.00
2023-03-20T07:13:02.976Z,3736.00
2023-03-20T07:14:02.930Z,3576.00
2023-03-20T07:15:03.045Z,3488.00
2023-03-20T07:16:04.746Z,3440.00
2023-03-20T07:17:03.363Z,3392.00
2023-03-20T07:18:03.290Z,3336.00
2023-03-20T07:19:03.028Z,3316.00
2023-03-20T07:20:03.036Z,3440.00
2023-03-20T07:21:03.219Z,3552.00
2023-03-20T07:22:02.404Z,3656.00
2023-03-20T07:23:02.318Z,3620.00
2023-03-20T07:24:02.883Z,3628.00
2023-03-20T07:25:02.361Z,3604.00
2023-03-20T07:26:02.673Z,3608.00
2023-03-20T07:27:03.149Z,3616.00
2023-03-20T07:28:02.960Z,3652.00
2023-03-20T07:29:02.888Z,3644.00
2023-03-20T07:30:03.194Z,3672.00
2023-03-20T07:31:03.208Z,3776.00
2023-03-20T07:32:02.864Z,3920.00
2023-03-20T07:33:02.296Z,4024.00
2023-03-20T07:34:02.938Z,4120.00
2023-03-20T07:35:02.720Z,4208.00
2023-03-20T07:36:02.323Z,4324.00
2023-03-20T07:37:02.968Z,4416.00
2023-03-20T07:38:03.046Z,4496.00
2023-03-20T07:39:02.994Z,4556.00
2023-03-20T07:40:02.873Z,4556.00
2023-03-20T07:41:02.820Z,4628.00
2023-03-20T07:42:03.392Z,4692.00
2023-03-20T07:43:03.581Z,4812.00
2023-03-20T07:44:03.415Z,5100.00
2023-03-20T07:45:02.912Z,5600.00
2023-03-20T07:46:03.444Z,6288.00
2023-03-20T07:47:02.761Z,6896.00
2023-03-20T07:48:02.889Z,7340.00
2023-03-20T07:49:02.928Z,7688.00
2023-03-20T07:50:02.931Z,8064.00
2023-03-20T07:51:02.708Z,8416.00
2023-03-20T07:52:03.318Z,8756.00
2023-03-20T07:53:03.032Z,9284.00
2023-03-20T07:54:02.812Z,9000.00
2023-03-20T07:55:02.768Z,8956.00
2023-03-20T07:56:02.771Z,9556.00
2023-03-20T07:57:03.492Z,9796.00
2023-03-20T07:58:03.330Z,9420.00
2023-03-20T07:59:02.985Z,9008.00
2023-03-20T08:00:02.906Z,8976.00
2023-03-20T08:01:03.534Z,8988.00
2023-03-20T08:02:02.365Z,9020.00
2023-03-20T08:03:02.673Z,9088.00
2023-03-20T08:04:02.592Z,9048.00
2023-03-20T08:05:02.677Z,8968.00
2023-03-20T08:06:02.838Z,8892.00
2023-03-20T08:07:01.924Z,8708.00
2023-03-20T08:08:02.267Z,8568.00
2023-03-20T08:09:02.296Z,8648.00
2023-03-20T08:10:02.282Z,8672.00
2023-03-20T08:11:02.363Z,8580.00
2023-03-20T08:12:02.313Z,8492.00
2023-03-20T08:13:02.783Z,8368.00
2023-03-20T08:14:02.952Z,8200.00
2023-03-20T08:15:02.367Z,7788.00
2023-03-20T08:16:02.942Z,7128.00
2023-03-20T08:17:14.352Z,7320.00
2023-03-20T08:18:03.145Z,7524.00
2023-03-20T08:20:02.983Z,6864.00
2023-03-20T08:21:03.071Z,6744.00
2023-03-20T08:22:01.911Z,6760.00
2023-03-20T08:23:02.125Z,6748.00
2023-03-20T08:24:01.804Z,6372.00
2023-03-20T08:25:02.064Z,5972.00
2023-03-20T08:26:01.970Z,5592.00
2023-03-20T08:27:02.491Z,5180.00
2023-03-20T08:28:02.880Z,5100.00
2023-03-20T08:29:02.493Z,5560.00
2023-03-20T08:30:03.063Z,5544.00
2023-03-20T08:31:02.676Z,5312.00
2023-03-20T08:32:01.804Z,5720.00
2023-03-20T08:33:02.212Z,7080.00
2023-03-20T08:34:01.966Z,8224.00
2023-03-20T08:35:02.077Z,8784.00
2023-03-20T08:36:02.127Z,8916.00
2023-03-20T08:37:02.174Z,9028.00
2023-03-20T08:38:02.001Z,9364.00
2023-03-20T08:39:02.605Z,9804.00
2023-03-20T08:40:02.441Z,10176.00
2023-03-20T08:41:02.623Z,10412.00
2023-03-20T08:42:02.369Z,10628.00
2023-03-20T08:43:02.353Z,11048.00
2023-03-20T08:44:02.606Z,11420.00
2023-03-20T08:45:02.552Z,11672.00
2023-03-20T08:46:02.470Z,11836.00
2023-03-20T08:47:02.242Z,11956.00
2023-03-20T08:48:02.040Z,12024.00
2023-03-20T08:49:02.096Z,12020.00
2023-03-20T08:50:02.023Z,11884.00
2023-03-20T08:51:02.138Z,11592.00
2023-03-20T08:52:02.561Z,11288.00
2023-03-20T08:53:02.556Z,11248.00
2023-03-20T08:54:02.560Z,11396.00
2023-03-20T08:55:02.882Z,11520.00
2023-03-20T08:56:02.874Z,11640.00
2023-03-20T08:57:01.844Z,11740.00
2023-03-20T08:58:01.716Z,11812.00
2023-03-20T08:59:01.633Z,11824.00
2023-03-20T09:00:02.156Z,11804.00
2023-03-20T09:01:02.151Z,11788.00
2023-03-20T09:02:03.507Z,11752.00
2023-03-20T09:03:03.260Z,11680.00
2023-03-20T09:04:03.438Z,11548.00
2023-03-20T09:05:03.257Z,11436.00
2023-03-20T09:06:03.306Z,11280.00
2023-03-20T09:07:02.484Z,11212.00
2023-03-20T09:08:02.458Z,11364.00
2023-03-20T09:09:02.663Z,11768.00
2023-03-20T09:10:02.433Z,12332.00
2023-03-20T09:11:02.465Z,12812.00
2023-03-20T09:12:02.784Z,13192.00
2023-03-20T09:13:15.491Z,13548.00
2023-03-20T09:14:03.128Z,13920.00
2023-03-20T09:15:02.879Z,14176.00
2023-03-20T09:16:02.917Z,14324.00
2023-03-20T09:17:02.506Z,14476.00
2023-03-20T09:18:03.957Z,14736.00
2023-03-20T09:19:02.408Z,15060.00
2023-03-20T09:20:02.128Z,15456.00
2023-03-20T09:21:02.533Z,15680.00
2023-03-20T09:22:02.835Z,15680.00
2023-03-20T09:23:02.695Z,15488.00
2023-03-20T09:24:03.044Z,15360.00
2023-03-20T09:25:03.187Z,15360.00
2023-03-20T09:26:02.949Z,14936.00
2023-03-20T09:27:03.738Z,14484.00
2023-03-20T09:28:02.177Z,13912.00
2023-03-20T09:29:02.456Z,13280.00
2023-03-20T09:30:02.364Z,12620.00
2023-03-20T09:31:02.548Z,12064.00
2023-03-20T09:32:02.798Z,11676.00
2023-03-20T09:33:03.019Z,11472.00
2023-03-20T09:34:02.897Z,11372.00
2023-03-20T09:35:02.869Z,11284.00
2023-03-20T09:36:02.615Z,11200.00
2023-03-20T09:37:03.038Z,11092.00
2023-03-20T09:38:03.277Z,11112.00
2023-03-20T09:39:02.799Z,11216.00
2023-03-20T09:40:03.205Z,11400.00
2023-03-20T09:41:02.935Z,11628.00
2023-03-20T09:42:02.599Z,11840.00
2023-03-20T09:43:02.542Z,11988.00
2023-03-20T09:44:02.462Z,11996.00
2023-03-20T09:45:02.466Z,12068.00
2023-03-20T09:46:02.695Z,12260.00
2023-03-20T09:47:18.909Z,12512.00
2023-03-20T09:48:03.442Z,12796.00
2023-03-20T09:49:03.203Z,13136.00
2023-03-20T09:50:03.165Z,13532.00
2023-03-20T09:51:03.098Z,13868.00
2023-03-20T09:52:03.043Z,14192.00
2023-03-20T09:53:02.960Z,14488.00
2023-03-20T09:54:03.184Z,14856.00
2023-03-20T09:55:02.834Z,15456.00
2023-03-20T09:56:02.549Z,15904.00
2023-03-20T09:57:03.242Z,16192.00
2023-03-20T09:58:02.799Z,16448.00
2023-03-20T09:59:02.889Z,16224.00
2023-03-20T10:00:02.993Z,16128.00
2023-03-20T10:01:03.085Z,15936.00
2023-03-20T10:02:02.617Z,15808.00
2023-03-20T10:03:02.296Z,15584.00
2023-03-20T10:04:02.602Z,15328.00
2023-03-20T10:05:02.198Z,15264.00
2023-03-20T10:06:02.194Z,15424.00
2023-03-20T10:07:02.883Z,15488.00
2023-03-20T10:08:02.901Z,15328.00
2023-03-20T10:09:02.840Z,15232.00
2023-03-20T10:10:02.507Z,15200.00
2023-03-20T10:11:02.940Z,14796.00
2023-03-20T10:12:03.219Z,14424.00
2023-03-20T10:13:03.237Z,13908.00
2023-03-20T10:14:02.737Z,13504.00
2023-03-20T10:15:02.963Z,12952.00
2023-03-20T10:16:02.927Z,12380.00
2023-03-20T10:17:02.503Z,11752.00
2023-03-20T10:18:02.019Z,11420.00
2023-03-20T10:19:02.600Z,11548.00
2023-03-20T10:20:02.564Z,11688.00
2023-03-20T10:21:02.440Z,11728.00
2023-03-20T10:22:02.664Z,11648.00
2023-03-20T10:23:02.295Z,11460.00
2023-03-20T10:24:02.123Z,11312.00
2023-03-20T10:25:02.258Z,11696.00
2023-03-20T10:26:02.351Z,12496.00
2023-03-20T10:27:03.044Z,13192.00
2023-03-20T10:28:02.934Z,13604.00
2023-03-20T10:29:02.657Z,13832.00
2023-03-20T10:30:02.672Z,13948.00
2023-03-20T10:31:02.684Z,14028.00
2023-03-20T10:32:02.411Z,14104.00
2023-03-20T10:33:01.913Z,14224.00
2023-03-20T10:34:01.911Z,14384.00
2023-03-20T10:35:02.187Z,14632.00
2023-03-20T10:36:02.253Z,14952.00
2023-03-20T10:37:02.959Z,15552.00
2023-03-20T10:38:02.843Z,15936.00
2023-03-20T10:39:02.525Z,16288.00
2023-03-20T10:40:02.516Z,16672.00
2023-03-20T10:41:02.768Z,17024.00
2023-03-20T10:42:03.034Z,17312.00
2023-03-20T10:43:02.986Z,17472.00
2023-03-20T10:44:02.872Z,17408.00
2023-03-20T10:45:02.774Z,17408.00
2023-03-20T10:46:02.763Z,17312.00
2023-03-20T10:47:03.343Z,17088.00
2023-03-20T10:48:03.355Z,16800.00
2023-03-20T10:49:03.183Z,16672.00
2023-03-20T10:50:03.019Z,16480.00
2023-03-20T10:51:03.055Z,16352.00
2023-03-20T10:52:03.343Z,16416.00
2023-03-20T10:53:03.234Z,16512.00
2023-03-20T10:54:03.398Z,16576.00
2023-03-20T10:55:02.978Z,16672.00
2023-03-20T10:56:03.081Z,16768.00
2023-03-20T10:57:02.107Z,16704.00
2023-03-20T10:58:02.161Z,16640.00
2023-03-20T10:59:02.128Z,16448.00
2023-03-20T11:00:02.342Z,16224.00
2023-03-20T11:01:02.509Z,16064.00
2023-03-20T11:02:02.878Z,16096.00
2023-03-20T11:03:02.823Z,15936.00
2023-03-20T11:04:02.964Z,15872.00
2023-03-20T11:05:02.997Z,16096.00
2023-03-20T11:06:09.699Z,16256.00
2023-03-20T11:07:02.938Z,16096.00
2023-03-20T11:08:02.998Z,15520.00
2023-03-20T11:09:03.092Z,14596.00
2023-03-20T11:10:03.338Z,13704.00
2023-03-20T11:11:03.607Z,13212.00
2023-03-20T11:12:03.284Z,13316.00
2023-03-20T11:13:02.946Z,13236.00
2023-03-20T11:14:02.343Z,13116.00
2023-03-20T11:15:02.695Z,13256.00
2023-03-20T11:16:02.740Z,13340.00
2023-03-20T11:17:02.707Z,13176.00
2023-03-20T11:18:03.426Z,12916.00
2023-03-20T11:19:05.886Z,12548.00
2023-03-20T11:20:03.277Z,12344.00
2023-03-20T11:21:02.787Z,12920.00
2023-03-20T11:22:03.042Z,14008.00
2023-03-20T11:23:02.649Z,14908.00
2023-03-20T11:24:02.495Z,15520.00
2023-03-20T11:25:02.553Z,15776.00
2023-03-20T11:26:02.594Z,16000.00
2023-03-20T11:27:02.504Z,16128.00
2023-03-20T11:28:03.302Z,16288.00
2023-03-20T11:29:03.229Z,16288.00
2023-03-20T11:30:03.293Z,16320.00
2023-03-20T11:31:05.091Z,16320.00
2023-03-20T11:32:03.059Z,16288.00
2023-03-20T11:33:02.554Z,16224.00
2023-03-20T11:34:02.579Z,16096.00
2023-03-20T11:35:02.852Z,15936.00
2023-03-20T11:36:03.094Z,15840.00
2023-03-20T11:37:10.123Z,15584.00
2023-03-20T11:38:03.040Z,15296.00
2023-03-20T11:39:03.006Z,14836.00
2023-03-20T11:40:03.273Z,14492.00
2023-03-20T11:41:03.224Z,14164.00
2023-03-20T11:42:03.251Z,13840.00
2023-03-20T11:43:03.082Z,13580.00
2023-03-20T11:44:03.245Z,13376.00
2023-03-20T11:45:02.914Z,13260.00
2023-03-20T11:46:03.108Z,13236.00
2023-03-20T11:47:03.126Z,13240.00
2023-03-20T11:48:04.075Z,13272.00
2023-03-20T11:49:02.998Z,13392.00
2023-03-20T11:50:03.369Z,13596.00
2023-03-20T11:51:03.078Z,13820.00
2023-03-20T11:52:02.884Z,14032.00
2023-03-20T11:53:02.704Z,14184.00
2023-03-20T11:54:02.673Z,14332.00
2023-03-20T11:55:02.670Z,14416.00
2023-03-20T11:56:02.690Z,14400.00
2023-03-20T11:57:02.398Z,14384.00
2023-03-20T11:58:02.952Z,14520.00
2023-03-20T11:59:02.962Z,14692.00
2023-03-20T12:00:02.980Z,14712.00
2023-03-20T12:01:03.158Z,14492.00
2023-03-20T12:02:03.229Z,14176.00
2023-03-20T12:03:02.688Z,13872.00
2023-03-20T12:04:02.462Z,13616.00
2023-03-20T12:05:02.802Z,13328.00
2023-03-20T12:06:02.813Z,13136.00
2023-03-20T12:07:02.660Z,13016.00
2023-03-20T12:08:02.454Z,12756.00
2023-03-20T12:09:01.998Z,12364.00
2023-03-20T12:10:02.450Z,12288.00
2023-03-20T12:11:02.340Z,12752.00
2023-03-20T12:12:02.343Z,13236.00
2023-03-20T12:13:02.703Z,13396.00
2023-03-20T12:14:02.569Z,13452.00
2023-03-20T12:15:03.066Z,13548.00
2023-03-20T12:16:03.030Z,13768.00
2023-03-20T12:17:03.044Z,13972.00
2023-03-20T12:18:02.861Z,14056.00
2023-03-20T12:19:02.339Z,14072.00
2023-03-20T12:20:02.290Z,13920.00
2023-03-20T12:21:02.643Z,13644.00
2023-03-20T12:22:02.565Z,13280.00
2023-03-20T12:23:02.189Z,12920.00
2023-03-20T12:24:02.338Z,12612.00
2023-03-20T12:25:02.249Z,12388.00
2023-03-20T12:26:02.236Z,12332.00
2023-03-20T12:27:03.192Z,12440.00
2023-03-20T12:28:02.868Z,12680.00
2023-03-20T12:29:02.225Z,12952.00
2023-03-20T12:30:02.404Z,13236.00